createdAt,value
2018-02-24T00:02:08.424Z,0.50
2018-02-24T00:04:36.304Z,0.50
2018-02-24T00:07:04.168Z,0.50
2018-02-24T00:09:31.988Z,0.60
2018-02-24T00:12:00.646Z,0.60
2018-02-24T00:14:28.496Z,0.60
2018-02-24T00:16:56.314Z,0.60
2018-02-24T00:19:24.970Z,0.70
2018-02-24T00:21:52.909Z,0.70
2018-02-24T00:24:20.724Z,0.70
2018-02-24T00:26:48.622Z,0.80
2018-02-24T00:29:16.436Z,0.80
2018-02-24T00:31:44.353Z,0.80
2018-02-24T00:34:12.324Z,0.70
2018-02-24T00:36:40.883Z,0.70
2018-02-24T00:39:09.444Z,0.70
2018-02-24T00:41:37.323Z,0.70
2018-02-24T00:44:05.107Z,0.70
2018-02-24T00:46:33.712Z,0.70
2018-02-24T00:49:01.677Z,0.80
2018-02-24T00:51:29.552Z,0.70
2018-02-24T00:53:57.487Z,0.70
2018-02-24T00:56:26.188Z,0.60
2018-02-24T00:58:54.132Z,0.60
2018-02-24T01:01:22.051Z,0.60
2018-02-24T01:03:49.949Z,0.60
2018-02-24T01:06:17.817Z,0.60
2018-02-24T01:08:45.596Z,0.60
2018-02-24T01:11:13.502Z,0.60
2018-02-24T01:13:41.322Z,0.70
2018-02-24T01:16:09.197Z,0.70
2018-02-24T01:18:37.125Z,0.70
2018-02-24T01:21:05.005Z,0.70
2018-02-24T01:23:32.954Z,0.70
2018-02-24T01:26:00.751Z,0.70
2018-02-24T01:28:28.615Z,0.80
2018-02-24T01:30:56.383Z,0.80
2018-02-24T01:33:24.204Z,0.70
2018-02-24T01:35:51.976Z,0.70
2018-02-24T01:38:19.827Z,0.70
2018-02-24T01:40:47.543Z,0.70
2018-02-24T01:43:15.311Z,0.70
2018-02-24T01:45:43.107Z,0.70
2018-02-24T01:48:11.664Z,0.60
2018-02-24T01:50:43.526Z,0.60
2018-02-24T01:53:12.780Z,0.60
2018-02-24T01:55:40.551Z,0.60
2018-02-24T01:58:08.268Z,0.60
2018-02-24T02:00:36.942Z,0.70
2018-02-24T02:03:04.770Z,0.70
2018-02-24T02:05:32.502Z,0.70
2018-02-24T02:08:01.033Z,0.60
2018-02-24T02:10:28.851Z,0.60
2018-02-24T02:12:56.677Z,0.60
2018-02-24T02:15:24.518Z,0.70
2018-02-24T02:17:52.419Z,0.70
2018-02-24T02:20:20.152Z,0.70
2018-02-24T02:22:48.016Z,0.80
2018-02-24T02:25:15.764Z,0.80
2018-02-24T02:27:43.599Z,0.80
2018-02-24T02:30:12.174Z,0.70
2018-02-24T02:32:40.741Z,0.70
2018-02-24T02:35:08.520Z,0.70
2018-02-24T02:37:37.059Z,0.70
2018-02-24T02:40:04.851Z,0.70
2018-02-24T02:42:32.785Z,0.70
2018-02-24T02:45:00.586Z,0.70
2018-02-24T02:47:28.472Z,0.80
2018-02-24T02:49:56.980Z,0.80
2018-02-24T02:52:24.792Z,0.80
2018-02-24T02:54:52.579Z,0.80
2018-02-24T02:57:20.364Z,0.80
2018-02-24T02:59:48.969Z,0.80
2018-02-24T03:02:16.836Z,0.80
2018-02-24T03:04:44.613Z,0.80
2018-02-24T03:07:12.358Z,0.80
2018-02-24T03:09:40.094Z,0.80
2018-02-24T03:12:07.940Z,0.70
2018-02-24T03:14:35.705Z,0.70
2018-02-24T03:17:03.492Z,0.70
2018-02-24T03:19:32.075Z,0.70
2018-02-24T03:22:00.603Z,0.70
2018-02-24T03:24:28.388Z,0.70
2018-02-24T03:26:56.384Z,0.80
2018-02-24T03:29:24.223Z,0.80
2018-02-24T03:31:52.003Z,0.80
2018-02-24T03:34:19.801Z,0.70
2018-02-24T03:36:48.298Z,0.80
2018-02-24T03:39:16.099Z,0.80
2018-02-24T03:41:43.903Z,0.70
2018-02-24T03:44:12.464Z,0.70
2018-02-24T03:46:40.316Z,0.70
2018-02-24T03:49:08.116Z,0.70
2018-02-24T03:51:36.694Z,0.70
2018-02-24T03:54:05.179Z,0.70
2018-02-24T03:56:33.693Z,0.60
2018-02-24T03:59:01.448Z,0.70
2018-02-24T04:01:29.276Z,0.60
2018-02-24T04:03:57.096Z,0.60
2018-02-24T04:06:24.944Z,0.50
2018-02-24T04:08:52.811Z,0.60
2018-02-24T04:11:20.624Z,0.50
2018-02-24T04:13:48.435Z,0.50
2018-02-24T04:16:16.939Z,0.50
2018-02-24T04:18:44.823Z,0.40
2018-02-24T04:21:12.638Z,0.40
2018-02-24T04:23:41.231Z,0.30
2018-02-24T04:26:09.771Z,0.40
2018-02-24T04:28:37.468Z,0.30
2018-02-24T04:31:05.939Z,0.30
2018-02-24T04:33:33.699Z,0.30
2018-02-24T04:36:01.479Z,0.30
2018-02-24T04:38:30.068Z,0.20
2018-02-24T04:40:58.537Z,0.20
2018-02-24T04:43:27.127Z,0.20
2018-02-24T04:45:55.843Z,0.10
2018-02-24T04:48:23.559Z,0.20
2018-02-24T04:50:51.355Z,0.10
2018-02-24T04:53:19.067Z,0.10
2018-02-24T04:55:46.880Z,0.10
2018-02-24T04:58:15.424Z,0.10
2018-02-24T05:00:43.264Z,0.10
2018-02-24T05:03:11.004Z,0.10
2018-02-24T05:05:38.796Z,0.10
2018-02-24T05:08:06.556Z,0.10
2018-02-24T05:10:34.319Z,0.10
2018-02-24T05:13:02.097Z,0.20
2018-02-24T05:15:29.804Z,0.20
2018-02-24T05:17:58.391Z,0.30
2018-02-24T05:20:26.909Z,0.30
2018-02-24T05:22:54.668Z,0.30
2018-02-24T05:25:22.476Z,0.30
2018-02-24T05:27:50.224Z,0.40
2018-02-24T05:30:18.017Z,0.40
2018-02-24T05:32:45.745Z,0.40
2018-02-24T05:35:13.555Z,0.40
2018-02-24T05:37:42.019Z,0.40
2018-02-24T05:40:09.737Z,0.40
2018-02-24T05:42:37.556Z,0.40
2018-02-24T05:45:05.301Z,0.40
2018-02-24T05:47:33.108Z,0.40
2018-02-24T05:50:01.607Z,0.50
2018-02-24T05:52:29.392Z,0.50
2018-02-24T05:54:57.151Z,0.50
2018-02-24T05:57:24.919Z,0.50
2018-02-24T05:59:52.735Z,0.50
2018-02-24T06:02:21.343Z,0.40
2018-02-24T06:04:49.155Z,0.40
2018-02-24T06:07:16.964Z,0.40
2018-02-24T06:09:45.562Z,0.40
2018-02-24T06:12:13.384Z,0.40
2018-02-24T06:14:41.175Z,0.40
2018-02-24T06:17:09.703Z,0.40
2018-02-24T06:19:37.432Z,0.40
2018-02-24T06:22:05.218Z,0.40
2018-02-24T06:24:32.940Z,0.40
2018-02-24T06:27:01.567Z,0.50
2018-02-24T06:29:29.338Z,0.50
2018-02-24T06:31:57.129Z,0.40
2018-02-24T06:34:25.009Z,0.50
2018-02-24T06:36:52.828Z,0.50
2018-02-24T06:39:20.647Z,0.50
2018-02-24T06:41:48.483Z,0.50
2018-02-24T06:44:16.357Z,0.60
2018-02-24T06:46:44.175Z,0.60
2018-02-24T06:49:11.947Z,0.60
2018-02-24T06:51:39.804Z,0.70
2018-02-24T06:54:07.631Z,0.70
2018-02-24T06:56:35.494Z,0.70
2018-02-24T06:59:03.309Z,0.80
2018-02-24T07:01:31.187Z,0.80
2018-02-24T07:03:58.943Z,0.80
2018-02-24T07:06:26.730Z,0.90
2018-02-24T07:08:54.500Z,0.90
2018-02-24T07:11:22.357Z,1.00
2018-02-24T07:13:50.264Z,1.00
2018-02-24T07:16:18.011Z,1.10
2018-02-24T07:18:45.835Z,1.10
2018-02-24T07:21:13.643Z,1.20
2018-02-24T07:23:41.430Z,1.20
2018-02-24T07:26:09.271Z,1.20
2018-02-24T07:28:37.013Z,1.20
2018-02-24T07:31:04.841Z,1.30
2018-02-24T07:33:32.641Z,1.30
2018-02-24T07:36:00.471Z,1.30
2018-02-24T07:38:29.122Z,1.40
2018-02-24T07:40:56.960Z,1.40
2018-02-24T07:43:24.822Z,1.40
2018-02-24T07:45:52.640Z,1.50
2018-02-24T07:48:21.216Z,1.70
2018-02-24T07:50:49.080Z,1.70
2018-02-24T07:53:19.034Z,1.70
2018-02-24T07:55:47.972Z,1.90
2018-02-24T07:58:17.253Z,2.00
2018-02-24T08:00:45.738Z,2.00
2018-02-24T08:03:14.719Z,2.10
2018-02-24T08:05:43.510Z,2.20
2018-02-24T08:08:11.645Z,2.20
2018-02-24T08:10:40.870Z,2.40
2018-02-24T08:13:08.987Z,2.40
2018-02-24T08:15:37.808Z,2.40
2018-02-24T08:18:07.419Z,2.40
2018-02-24T08:20:36.301Z,2.40
2018-02-24T08:23:07.152Z,2.40
2018-02-24T08:25:36.528Z,2.40
2018-02-24T08:28:04.818Z,2.40
2018-02-24T08:30:32.900Z,2.30
2018-02-24T08:33:01.894Z,2.30
2018-02-24T08:35:31.366Z,2.30
2018-02-24T08:37:59.465Z,2.30
2018-02-24T08:40:28.380Z,2.40
2018-02-24T08:42:57.299Z,2.70
2018-02-24T08:45:27.568Z,2.70
2018-02-24T08:47:57.213Z,2.90
2018-02-24T08:50:27.676Z,3.10
2018-02-24T08:52:58.078Z,3.30
2018-02-24T08:55:28.783Z,3.30
2018-02-24T08:57:57.826Z,3.50
2018-02-24T09:00:26.779Z,3.60
2018-02-24T09:02:57.306Z,3.80
2018-02-24T09:05:29.891Z,3.80
2018-02-24T09:07:59.397Z,4.00
2018-02-24T09:10:28.569Z,4.00
2018-02-24T09:13:00.557Z,4.00
2018-02-24T09:15:30.309Z,3.90
2018-02-24T09:18:02.330Z,3.90
2018-02-24T09:20:32.851Z,3.90
2018-02-24T09:23:04.333Z,3.80
2018-02-24T09:25:36.220Z,3.70
2018-02-24T09:28:04.120Z,3.60
2018-02-24T09:30:32.005Z,3.60
2018-02-24T09:32:59.851Z,3.60
2018-02-24T09:35:27.745Z,3.70
2018-02-24T09:37:55.591Z,3.90
2018-02-24T09:40:23.400Z,4.00
2018-02-24T09:42:52.819Z,4.30
2018-02-24T09:45:21.431Z,4.40
2018-02-24T09:47:49.171Z,4.40
2018-02-24T09:50:17.786Z,4.50
2018-02-24T09:52:45.556Z,4.50
2018-02-24T09:55:13.419Z,4.60
2018-02-24T09:57:41.148Z,4.70
2018-02-24T10:00:08.943Z,4.70
2018-02-24T10:02:36.755Z,4.70
2018-02-24T10:05:05.260Z,4.50
2018-02-24T10:07:33.915Z,4.40
2018-02-24T10:10:01.641Z,4.40
2018-02-24T10:12:29.393Z,4.40
2018-02-24T10:14:57.273Z,4.30
2018-02-24T10:17:25.103Z,4.20
2018-02-24T10:19:53.824Z,4.10
2018-02-24T10:22:21.624Z,4.10
2018-02-24T10:24:49.522Z,4.00
2018-02-24T10:27:18.079Z,4.00
2018-02-24T10:29:46.671Z,3.90
2018-02-24T10:32:14.457Z,4.00
2018-02-24T10:34:43.198Z,3.90
2018-02-24T10:39:45.239Z,3.90
2018-02-24T10:42:13.118Z,3.90
2018-02-24T10:44:40.849Z,3.80
2018-02-24T10:47:09.460Z,3.80
2018-02-24T10:49:37.309Z,3.90
2018-02-24T10:52:05.124Z,3.90
2018-02-24T10:54:33.030Z,3.90
2018-02-24T10:57:01.569Z,3.90
2018-02-24T10:59:29.415Z,3.90
2018-02-24T11:01:57.236Z,3.90
2018-02-24T11:04:25.715Z,3.80
2018-02-24T11:06:53.533Z,3.80
2018-02-24T11:09:21.420Z,3.80
2018-02-24T11:11:49.229Z,3.80
2018-02-24T11:14:17.819Z,3.80
2018-02-24T11:16:46.349Z,3.80
2018-02-24T11:19:14.201Z,3.70
2018-02-24T11:21:42.012Z,3.80
2018-02-24T11:24:10.567Z,3.90
2018-02-24T11:26:38.446Z,3.80
2018-02-24T11:29:06.235Z,3.90
2018-02-24T11:31:34.857Z,3.90
2018-02-24T11:34:02.675Z,3.90
2018-02-24T11:36:30.467Z,4.00
2018-02-24T11:38:58.319Z,4.00
2018-02-24T11:41:26.879Z,4.10
2018-02-24T11:43:54.750Z,4.10
2018-02-24T11:46:22.560Z,4.10
2018-02-24T11:48:50.326Z,4.20
2018-02-24T11:51:18.176Z,4.20
2018-02-24T11:53:46.759Z,4.20
2018-02-24T11:56:14.600Z,4.20
2018-02-24T11:58:42.511Z,4.30
2018-02-24T12:01:10.390Z,4.30
2018-02-24T12:03:38.187Z,4.40
2018-02-24T12:06:06.080Z,4.50
2018-02-24T12:08:34.566Z,4.40
2018-02-24T12:11:03.164Z,4.40
2018-02-24T12:13:31.009Z,4.40
2018-02-24T12:15:59.522Z,4.30
2018-02-24T12:18:27.299Z,4.20
2018-02-24T12:20:55.057Z,4.30
2018-02-24T12:23:22.978Z,4.30
2018-02-24T12:25:51.612Z,4.40
2018-02-24T12:28:19.379Z,4.30
2018-02-24T12:30:47.163Z,4.30
2018-02-24T12:33:14.916Z,4.30
2018-02-24T12:35:42.776Z,4.30
2018-02-24T12:38:10.599Z,4.20
2018-02-24T12:40:39.110Z,4.30
2018-02-24T12:43:06.970Z,4.30
2018-02-24T12:45:34.730Z,4.40
2018-02-24T12:48:02.553Z,4.30
2018-02-24T12:50:30.370Z,4.30
2018-02-24T12:52:58.144Z,4.30
2018-02-24T12:55:25.947Z,4.40
2018-02-24T12:57:54.611Z,4.40
2018-02-24T13:00:22.379Z,4.40
2018-02-24T13:02:50.241Z,4.40
2018-02-24T13:05:18.089Z,4.50
2018-02-24T13:07:45.873Z,4.50
2018-02-24T13:10:13.721Z,4.50
2018-02-24T13:12:41.541Z,4.50
2018-02-24T13:15:09.380Z,4.40
2018-02-24T13:17:37.976Z,4.40
2018-02-24T13:20:05.835Z,4.40
2018-02-24T13:22:33.606Z,4.40
2018-02-24T13:25:01.351Z,4.40
2018-02-24T13:27:29.228Z,4.40
2018-02-24T13:29:57.047Z,4.30
2018-02-24T13:32:24.868Z,4.40
2018-02-24T13:34:52.708Z,4.30
2018-02-24T13:37:20.555Z,4.30
2018-02-24T13:39:48.387Z,4.20
2018-02-24T13:42:16.223Z,4.20
2018-02-24T13:44:43.994Z,4.20
2018-02-24T13:47:11.839Z,4.20
2018-02-24T13:49:39.756Z,4.20
2018-02-24T13:52:07.472Z,4.20
2018-02-24T13:54:35.268Z,4.10
2018-02-24T13:57:03.073Z,4.10
2018-02-24T13:59:30.900Z,4.20
2018-02-24T14:01:58.654Z,4.20
2018-02-24T14:04:26.415Z,4.20
2018-02-24T14:06:54.212Z,4.20
2018-02-24T14:09:22.801Z,4.20
2018-02-24T14:11:51.444Z,4.10
2018-02-24T14:14:19.253Z,4.10
2018-02-24T14:16:47.788Z,4.00
2018-02-24T14:19:15.699Z,4.00
2018-02-24T14:21:44.267Z,3.90
2018-02-24T14:24:12.048Z,3.90
2018-02-24T14:26:40.725Z,3.70
2018-02-24T14:29:09.283Z,3.70
2018-02-24T14:31:37.146Z,3.70
2018-02-24T14:34:04.930Z,3.70
2018-02-24T14:36:32.767Z,3.60
2018-02-24T14:39:00.549Z,3.60
2018-02-24T14:41:28.410Z,3.60
2018-02-24T14:43:56.161Z,3.50
2018-02-24T14:46:23.951Z,3.60
2018-02-24T14:48:51.760Z,3.60
2018-02-24T14:51:19.517Z,3.50
2018-02-24T14:53:48.132Z,3.50
2018-02-24T14:56:15.920Z,3.50
2018-02-24T14:58:43.745Z,3.40
2018-02-24T15:01:11.580Z,3.40
2018-02-24T15:03:40.209Z,3.30
2018-02-24T15:06:08.010Z,3.30
2018-02-24T15:08:35.840Z,3.20
2018-02-24T15:11:03.647Z,3.20
2018-02-24T15:13:31.374Z,3.10
2018-02-24T15:15:59.111Z,3.00
2018-02-24T15:18:27.008Z,3.00
2018-02-24T15:20:54.776Z,2.90
2018-02-24T15:23:22.570Z,2.80
2018-02-24T15:25:50.489Z,2.80
2018-02-24T15:28:18.280Z,2.70
2018-02-24T15:30:46.069Z,2.70
2018-02-24T15:33:13.864Z,2.70
2018-02-24T15:35:42.437Z,2.60
2018-02-24T15:38:11.037Z,2.60
2018-02-24T15:40:38.892Z,2.60
2018-02-24T15:43:07.401Z,2.60
2018-02-24T15:45:35.927Z,2.60
2018-02-24T15:48:03.784Z,2.60
2018-02-24T15:50:31.626Z,2.60
2018-02-24T15:52:59.459Z,2.50
2018-02-24T15:55:27.311Z,2.50
2018-02-24T15:57:55.135Z,2.50
2018-02-24T16:00:22.990Z,2.40
2018-02-24T16:02:50.875Z,2.40
2018-02-24T16:05:18.740Z,2.40
2018-02-24T16:07:46.591Z,2.40
2018-02-24T16:10:14.484Z,2.40
2018-02-24T16:12:42.283Z,2.40
2018-02-24T16:15:10.848Z,2.30
2018-02-24T16:17:38.705Z,2.30
2018-02-24T16:20:06.472Z,2.30
2018-02-24T16:22:35.099Z,2.20
2018-02-24T16:25:02.995Z,2.20
2018-02-24T16:27:30.786Z,2.20
2018-02-24T16:29:58.570Z,2.20
2018-02-24T16:32:26.426Z,2.20
2018-02-24T16:34:54.247Z,2.20
2018-02-24T16:37:22.038Z,2.20
2018-02-24T16:39:50.020Z,2.20
2018-02-24T16:42:17.836Z,2.10
2018-02-24T16:44:45.588Z,2.10
2018-02-24T16:47:13.428Z,2.10
2018-02-24T16:49:41.205Z,2.00
2018-02-24T16:52:09.793Z,2.00
2018-02-24T16:54:38.435Z,2.00
2018-02-24T16:57:06.203Z,2.00
2018-02-24T16:59:34.012Z,2.10
2018-02-24T17:02:02.561Z,2.00
2018-02-24T17:04:30.336Z,2.10
2018-02-24T17:06:58.138Z,2.00
2018-02-24T17:09:26.019Z,1.90
2018-02-24T17:11:53.824Z,1.90
2018-02-24T17:14:21.636Z,1.90
2018-02-24T17:16:49.490Z,1.90
2018-02-24T17:19:18.135Z,1.90
2018-02-24T17:21:45.895Z,1.90
2018-02-24T17:24:13.684Z,1.90
2018-02-24T17:26:41.447Z,1.90
2018-02-24T17:29:09.289Z,1.80
2018-02-24T17:31:37.163Z,1.80
2018-02-24T17:34:04.995Z,1.70
2018-02-24T17:36:32.714Z,1.70
2018-02-24T17:39:00.608Z,1.70
2018-02-24T17:41:29.650Z,1.60
2018-02-24T17:43:57.464Z,1.60
2018-02-24T17:46:26.155Z,1.60
2018-02-24T17:48:53.893Z,1.60
2018-02-24T17:51:21.624Z,1.60
2018-02-24T17:53:49.455Z,1.60
2018-02-24T17:56:17.214Z,1.60
2018-02-24T17:58:45.104Z,1.60
2018-02-24T18:01:13.095Z,1.60
2018-02-24T18:03:40.963Z,1.60
2018-02-24T18:06:08.839Z,1.50
2018-02-24T18:08:36.738Z,1.50
2018-02-24T18:11:05.484Z,1.50
2018-02-24T18:13:33.220Z,1.50
2018-02-24T18:16:01.076Z,1.50
2018-02-24T18:18:28.891Z,1.40
2018-02-24T18:20:56.687Z,1.40
2018-02-24T18:23:25.479Z,1.30
2018-02-24T18:25:54.063Z,1.30
2018-02-24T18:28:22.692Z,1.20
2018-02-24T18:30:50.542Z,1.30
2018-02-24T18:33:18.416Z,1.20
2018-02-24T18:35:46.216Z,1.20
2018-02-24T18:38:14.092Z,1.20
2018-02-24T18:40:41.909Z,1.20
2018-02-24T18:43:09.799Z,1.10
2018-02-24T18:45:37.819Z,1.10
2018-02-24T18:48:06.671Z,1.00
2018-02-24T18:50:34.537Z,1.00
2018-02-24T18:53:02.396Z,1.00
2018-02-24T18:55:30.236Z,1.00
2018-02-24T18:57:58.324Z,1.00
2018-02-24T19:00:26.515Z,1.00
2018-02-24T19:02:54.432Z,1.00
2018-02-24T19:05:22.627Z,0.90
2018-02-24T19:07:51.198Z,0.90
2018-02-24T19:10:19.101Z,0.90
2018-02-24T19:12:46.977Z,0.90
2018-02-24T19:15:14.814Z,0.80
2018-02-24T19:17:42.756Z,0.80
2018-02-24T19:20:10.608Z,0.80
2018-02-24T19:22:39.256Z,0.70
2018-02-24T19:25:07.235Z,0.70
2018-02-24T19:27:35.032Z,0.70
2018-02-24T19:30:03.759Z,0.60
2018-02-24T19:32:31.849Z,0.60
2018-02-24T19:34:59.807Z,0.60
2018-02-24T19:37:27.796Z,0.60
2018-02-24T19:39:55.756Z,0.50
2018-02-24T19:42:23.635Z,0.50
2018-02-24T19:44:51.649Z,0.40
2018-02-24T19:47:19.563Z,0.30
2018-02-24T19:49:47.408Z,0.40
2018-02-24T19:52:15.400Z,0.30
2018-02-24T19:54:43.311Z,0.20
2018-02-24T19:57:11.233Z,0.10
2018-02-24T19:59:39.147Z,0.10
2018-02-24T20:02:07.891Z,0.00
2018-02-24T20:04:35.720Z,0.00
2018-02-24T20:07:03.588Z,0.00
2018-02-24T20:09:31.347Z,-0.10
2018-02-24T20:11:59.155Z,-0.10
2018-02-24T20:14:26.999Z,-0.20
2018-02-24T20:16:54.732Z,-0.20
2018-02-24T20:19:22.549Z,-0.30
2018-02-24T20:21:50.378Z,-0.30
2018-02-24T20:24:18.159Z,-0.40
2018-02-24T20:26:46.020Z,-0.40
2018-02-24T20:29:13.781Z,-0.40
2018-02-24T20:31:41.724Z,-0.40
2018-02-24T20:34:10.351Z,-0.50
2018-02-24T20:36:38.215Z,-0.50
2018-02-24T20:39:05.957Z,-0.50
2018-02-24T20:41:33.779Z,-0.50
2018-02-24T20:44:01.671Z,-0.60
2018-02-24T20:46:30.390Z,-0.70
2018-02-24T20:48:58.213Z,-0.70
2018-02-24T20:51:26.816Z,-0.70
2018-02-24T20:53:54.664Z,-0.70
2018-02-24T20:56:23.276Z,-0.80
2018-02-24T20:58:51.236Z,-0.80
2018-02-24T21:01:19.875Z,-0.90
2018-02-24T21:03:47.707Z,-0.90
2018-02-24T21:06:15.624Z,-0.90
2018-02-24T21:08:43.414Z,-0.90
2018-02-24T21:11:11.945Z,-1.00
2018-02-24T21:13:39.755Z,-1.00
2018-02-24T21:16:08.327Z,-1.10
2018-02-24T21:18:36.940Z,-1.10
2018-02-24T21:21:04.773Z,-1.10
2018-02-24T21:23:32.668Z,-1.10
2018-02-24T21:26:00.473Z,-1.20
2018-02-24T21:28:28.268Z,-1.20
2018-02-24T21:30:56.077Z,-1.20
2018-02-24T21:33:23.968Z,-1.20
2018-02-24T21:35:51.867Z,-1.30
2018-02-24T21:38:19.784Z,-1.30
2018-02-24T21:40:47.645Z,-1.30
2018-02-24T21:43:15.540Z,-1.30
2018-02-24T21:45:43.315Z,-1.30
2018-02-24T21:48:11.490Z,-1.40
2018-02-24T21:50:40.470Z,-1.40
2018-02-24T21:53:08.450Z,-1.40
2018-02-24T21:55:36.600Z,-1.40
2018-02-24T21:58:04.513Z,-1.40
2018-02-24T22:00:33.384Z,-1.40
2018-02-24T22:03:03.167Z,-1.50
2018-02-24T22:05:31.065Z,-1.50
2018-02-24T22:07:58.930Z,-1.50
2018-02-24T22:10:27.001Z,-1.50
2018-02-24T22:12:54.973Z,-1.50
2018-02-24T22:15:23.144Z,-1.50
2018-02-24T22:17:51.196Z,-1.50
2018-02-24T22:20:19.081Z,-1.60
2018-02-24T22:22:47.051Z,-1.60
2018-02-24T22:25:15.022Z,-1.60
2018-02-24T22:27:43.160Z,-1.60
2018-02-24T22:30:10.969Z,-1.70
2018-02-24T22:32:38.666Z,-1.70
2018-02-24T22:35:07.128Z,-1.80
2018-02-24T22:37:34.828Z,-1.80
2018-02-24T22:40:02.528Z,-1.70
2018-02-24T22:42:30.588Z,-1.80
2018-02-24T22:44:58.649Z,-1.80
2018-02-24T22:47:27.074Z,-1.90
2018-02-24T22:49:55.187Z,-1.90
2018-02-24T22:52:23.807Z,-1.90
2018-02-24T22:54:51.850Z,-2.00
2018-02-24T22:57:19.850Z,-2.00
2018-02-24T22:59:47.733Z,-2.00
2018-02-24T23:02:15.930Z,-2.00
2018-02-24T23:04:44.676Z,-2.10
2018-02-24T23:07:12.452Z,-2.10
2018-02-24T23:09:40.211Z,-2.10
2018-02-24T23:12:08.141Z,-2.20
2018-02-24T23:14:36.002Z,-2.20
2018-02-24T23:17:03.851Z,-2.20
2018-02-24T23:19:32.594Z,-2.20
2018-02-24T23:22:00.446Z,-2.30
2018-02-24T23:24:28.327Z,-2.30
2018-02-24T23:26:56.155Z,-2.30
2018-02-24T23:29:24.780Z,-2.30
2018-02-24T23:31:52.955Z,-2.30
2018-02-24T23:34:21.131Z,-2.30
2018-02-24T23:36:49.015Z,-2.40
2018-02-24T23:39:17.065Z,-2.40
2018-02-24T23:41:45.037Z,-2.50
2018-02-24T23:44:13.044Z,-2.50
2018-02-24T23:46:41.794Z,-2.60
2018-02-24T23:49:09.887Z,-2.60
2018-02-24T23:51:37.834Z,-2.60
2018-02-24T23:54:05.908Z,-2.60
2018-02-24T23:56:33.873Z,-2.60
2018-02-24T23:59:01.946Z,-2.60
